sensor_id;sensor_type;location;lat;lon;timestamp;pressure;altitude;pressure_sealevel;temperature;humidity
36192;BME280;22233;42.708;23.360;2024-02-04T00:01:45;95798.81;;;4.97;62.02
36192;BME280;22233;42.708;23.360;2024-02-04T00:04:10;95803.97;;;5.14;61.60
36192;BME280;22233;42.708;23.360;2024-02-04T00:06:36;95803.16;;;5.08;61.67
36192;BME280;22233;42.708;23.360;2024-02-04T00:09:01;95798.28;;;5.20;62.04
36192;BME280;22233;42.708;23.360;2024-02-04T00:11:28;95800.38;;;4.57;63.54
36192;BME280;22233;42.708;23.360;2024-02-04T00:13:53;95795.59;;;4.90;62.48
36192;BME280;22233;42.708;23.360;2024-02-04T00:16:19;95793.84;;;4.37;64.26
36192;BME280;22233;42.708;23.360;2024-02-04T00:18:44;95789.84;;;4.50;63.85
36192;BME280;22233;42.708;23.360;2024-02-04T00:21:09;95794.31;;;4.19;65.91
36192;BME280;22233;42.708;23.360;2024-02-04T00:23:34;95804.94;;;4.56;65.83
36192;BME280;22233;42.708;23.360;2024-02-04T00:26:00;95793.72;;;4.85;64.76
36192;BME280;22233;42.708;23.360;2024-02-04T00:28:25;95794.25;;;4.92;64.32
36192;BME280;22233;42.708;23.360;2024-02-04T00:30:52;95791.25;;;4.78;65.53
36192;BME280;22233;42.708;23.360;2024-02-04T00:33:20;95792.66;;;5.22;67.92
36192;BME280;22233;42.708;23.360;2024-02-04T00:35:45;95794.22;;;5.74;67.00
36192;BME280;22233;42.708;23.360;2024-02-04T00:38:10;95781.47;;;6.16;66.18
36192;BME280;22233;42.708;23.360;2024-02-04T00:40:36;95790.13;;;5.97;65.60
36192;BME280;22233;42.708;23.360;2024-02-04T00:43:01;95799.78;;;6.19;65.24
36192;BME280;22233;42.708;23.360;2024-02-04T00:45:26;95786.84;;;6.21;66.30
36192;BME280;22233;42.708;23.360;2024-02-04T00:47:51;95788.47;;;6.17;66.17
36192;BME280;22233;42.708;23.360;2024-02-04T00:50:17;95793.50;;;6.44;65.03
36192;BME280;22233;42.708;23.360;2024-02-04T00:52:42;95791.31;;;6.46;64.18
36192;BME280;22233;42.708;23.360;2024-02-04T00:55:08;95786.34;;;6.64;63.72
36192;BME280;22233;42.708;23.360;2024-02-04T00:57:33;95790.53;;;6.40;64.48
36192;BME280;22233;42.708;23.360;2024-02-04T00:59:58;95789.13;;;6.98;62.88
36192;BME280;22233;42.708;23.360;2024-02-04T01:02:23;95790.94;;;7.08;62.94
36192;BME280;22233;42.708;23.360;2024-02-04T01:04:49;95786.28;;;7.18;62.75
36192;BME280;22233;42.708;23.360;2024-02-04T01:07:15;95783.59;;;7.48;62.06
36192;BME280;22233;42.708;23.360;2024-02-04T01:09:40;95793.44;;;7.68;61.79
36192;BME280;22233;42.708;23.360;2024-02-04T01:12:07;95791.31;;;7.65;62.06
36192;BME280;22233;42.708;23.360;2024-02-04T01:14:32;95789.31;;;7.75;62.19
36192;BME280;22233;42.708;23.360;2024-02-04T01:16:57;95789.19;;;8.15;61.14
36192;BME280;22233;42.708;23.360;2024-02-04T01:19:23;95787.66;;;8.04;61.89
36192;BME280;22233;42.708;23.360;2024-02-04T01:21:48;95787.91;;;8.31;60.69
36192;BME280;22233;42.708;23.360;2024-02-04T01:24:13;95792.69;;;8.39;60.49
36192;BME280;22233;42.708;23.360;2024-02-04T01:26:38;95782.31;;;8.23;61.36
36192;BME280;22233;42.708;23.360;2024-02-04T01:29:03;95776.69;;;8.19;60.91
36192;BME280;22233;42.708;23.360;2024-02-04T01:31:29;95783.00;;;8.33;61.00
36192;BME280;22233;42.708;23.360;2024-02-04T01:33:54;95783.22;;;8.13;61.09
36192;BME280;22233;42.708;23.360;2024-02-04T01:36:19;95777.94;;;8.51;60.66
36192;BME280;22233;42.708;23.360;2024-02-04T01:38:44;95784.63;;;8.77;60.21
36192;BME280;22233;42.708;23.360;2024-02-04T01:41:10;95774.22;;;8.66;60.44
36192;BME280;22233;42.708;23.360;2024-02-04T01:43:35;95773.72;;;8.83;59.81
36192;BME280;22233;42.708;23.360;2024-02-04T01:46:00;95766.41;;;8.40;60.93
36192;BME280;22233;42.708;23.360;2024-02-04T01:48:26;95765.72;;;8.53;60.93
36192;BME280;22233;42.708;23.360;2024-02-04T01:50:51;95761.25;;;8.63;61.29
36192;BME280;22233;42.708;23.360;2024-02-04T01:53:19;95768.84;;;8.42;61.84
36192;BME280;22233;42.708;23.360;2024-02-04T01:55:46;95759.28;;;8.68;60.98
36192;BME280;22233;42.708;23.360;2024-02-04T01:58:11;95758.22;;;8.69;61.49
36192;BME280;22233;42.708;23.360;2024-02-04T02:00:36;95748.44;;;9.06;60.21
36192;BME280;22233;42.708;23.360;2024-02-04T02:03:02;95751.09;;;8.73;61.38
36192;BME280;22233;42.708;23.360;2024-02-04T02:05:29;95756.06;;;8.85;60.82
36192;BME280;22233;42.708;23.360;2024-02-04T02:07:54;95759.16;;;8.78;61.63
36192;BME280;22233;42.708;23.360;2024-02-04T02:10:20;95758.41;;;8.73;61.75
36192;BME280;22233;42.708;23.360;2024-02-04T02:15:15;95742.97;;;8.92;60.97
36192;BME280;22233;42.708;23.360;2024-02-04T02:17:57;95755.22;;;8.90;61.32
36192;BME280;22233;42.708;23.360;2024-02-04T02:23:06;95744.38;;;8.90;61.23
36192;BME280;22233;42.708;23.360;2024-02-04T02:25:32;95741.63;;;9.09;60.28
36192;BME280;22233;42.708;23.360;2024-02-04T02:27:58;95746.63;;;9.02;60.87
36192;BME280;22233;42.708;23.360;2024-02-04T02:30:24;95738.53;;;9.15;60.86
36192;BME280;22233;42.708;23.360;2024-02-04T02:32:49;95740.03;;;9.08;60.96
36192;BME280;22233;42.708;23.360;2024-02-04T02:35:15;95740.63;;;8.86;60.95
36192;BME280;22233;42.708;23.360;2024-02-04T02:37:50;95742.31;;;9.00;60.98
36192;BME280;22233;42.708;23.360;2024-02-04T02:40:34;95741.56;;;9.14;60.63
36192;BME280;22233;42.708;23.360;2024-02-04T02:43:02;95734.09;;;9.06;60.74
36192;BME280;22233;42.708;23.360;2024-02-04T02:45:27;95733.34;;;9.19;60.29
36192;BME280;22233;42.708;23.360;2024-02-04T02:47:54;95743.66;;;9.36;59.67
36192;BME280;22233;42.708;23.360;2024-02-04T02:50:19;95748.72;;;9.56;59.11
36192;BME280;22233;42.708;23.360;2024-02-04T02:52:45;95742.47;;;9.42;59.54
36192;BME280;22233;42.708;23.360;2024-02-04T02:55:10;95736.88;;;9.33;60.24
36192;BME280;22233;42.708;23.360;2024-02-04T02:57:35;95741.91;;;9.07;60.64
36192;BME280;22233;42.708;23.360;2024-02-04T03:00:01;95740.63;;;8.86;61.28
36192;BME280;22233;42.708;23.360;2024-02-04T03:02:26;95736.88;;;9.19;60.76
36192;BME280;22233;42.708;23.360;2024-02-04T03:04:51;95740.72;;;9.13;60.95
36192;BME280;22233;42.708;23.360;2024-02-04T03:07:16;95746.66;;;9.15;60.86
36192;BME280;22233;42.708;23.360;2024-02-04T03:09:42;95748.63;;;9.29;60.29
36192;BME280;22233;42.708;23.360;2024-02-04T03:12:08;95741.69;;;9.23;59.93
36192;BME280;22233;42.708;23.360;2024-02-04T03:14:33;95749.09;;;9.50;59.70
36192;BME280;22233;42.708;23.360;2024-02-04T03:16:59;95732.47;;;9.37;60.22
36192;BME280;22233;42.708;23.360;2024-02-04T03:19:24;95743.03;;;9.39;59.36
36192;BME280;22233;42.708;23.360;2024-02-04T03:21:49;95739.13;;;9.45;59.37
36192;BME280;22233;42.708;23.360;2024-02-04T03:24:14;95728.06;;;9.28;60.35
36192;BME280;22233;42.708;23.360;2024-02-04T03:26:40;95733.63;;;9.50;59.28
36192;BME280;22233;42.708;23.360;2024-02-04T03:29:05;95732.91;;;9.45;59.40
36192;BME280;22233;42.708;23.360;2024-02-04T03:31:30;95735.69;;;9.26;60.12
36192;BME280;22233;42.708;23.360;2024-02-04T03:33:55;95724.31;;;9.56;59.24
36192;BME280;22233;42.708;23.360;2024-02-04T03:36:22;95720.22;;;9.26;59.97
36192;BME280;22233;42.708;23.360;2024-02-04T03:38:48;95713.50;;;9.24;59.65
36192;BME280;22233;42.708;23.360;2024-02-04T03:41:14;95714.34;;;9.66;59.22
36192;BME280;22233;42.708;23.360;2024-02-04T03:43:39;95702.72;;;9.79;58.68
36192;BME280;22233;42.708;23.360;2024-02-04T03:46:04;95695.09;;;9.81;58.27
36192;BME280;22233;42.708;23.360;2024-02-04T03:48:29;95678.41;;;9.88;58.15
36192;BME280;22233;42.708;23.360;2024-02-04T03:50:55;95686.25;;;9.75;58.69
36192;BME280;22233;42.708;23.360;2024-02-04T03:53:20;95685.84;;;9.96;58.43
36192;BME280;22233;42.708;23.360;2024-02-04T03:55:48;95680.41;;;9.96;59.18
36192;BME280;22233;42.708;23.360;2024-02-04T03:58:13;95695.09;;;9.95;58.10
36192;BME280;22233;42.708;23.360;2024-02-04T04:00:38;95691.84;;;9.51;59.42
36192;BME280;22233;42.708;23.360;2024-02-04T04:03:03;95697.47;;;9.55;59.08
36192;BME280;22233;42.708;23.360;2024-02-04T04:05:29;95714.44;;;9.47;59.64
36192;BME280;22233;42.708;23.360;2024-02-04T04:07:54;95699.66;;;9.39;60.40
36192;BME280;22233;42.708;23.360;2024-02-04T04:10:19;95713.94;;;9.45;59.86
36192;BME280;22233;42.708;23.360;2024-02-04T04:12:45;95695.38;;;9.52;60.05
36192;BME280;22233;42.708;23.360;2024-02-04T04:15:10;95707.94;;;9.48;59.95
36192;BME280;22233;42.708;23.360;2024-02-04T04:17:35;95698.47;;;9.45;60.53
36192;BME280;22233;42.708;23.360;2024-02-04T04:20:00;95695.34;;;9.38;60.30
36192;BME280;22233;42.708;23.360;2024-02-04T04:22:26;95692.13;;;9.36;60.66
36192;BME280;22233;42.708;23.360;2024-02-04T04:24:51;95700.81;;;9.19;61.53
36192;BME280;22233;42.708;23.360;2024-02-04T04:27:16;95697.72;;;9.26;60.92
36192;BME280;22233;42.708;23.360;2024-02-04T04:29:41;95700.59;;;9.48;60.29
36192;BME280;22233;42.708;23.360;2024-02-04T04:32:06;95715.34;;;9.42;59.57
36192;BME280;22233;42.708;23.360;2024-02-04T04:34:32;95718.13;;;9.37;60.51
36192;BME280;22233;42.708;23.360;2024-02-04T04:36:57;95714.72;;;9.45;60.53
36192;BME280;22233;42.708;23.360;2024-02-04T04:39:22;95711.53;;;9.57;60.44
36192;BME280;22233;42.708;23.360;2024-02-04T04:41:47;95713.38;;;9.75;59.13
36192;BME280;22233;42.708;23.360;2024-02-04T04:44:13;95708.94;;;9.79;59.34
36192;BME280;22233;42.708;23.360;2024-02-04T04:46:38;95714.09;;;9.81;59.21
36192;BME280;22233;42.708;23.360;2024-02-04T04:49:04;95699.81;;;9.89;58.54
36192;BME280;22233;42.708;23.360;2024-02-04T04:51:29;95715.78;;;9.77;59.30
36192;BME280;22233;42.708;23.360;2024-02-04T04:53:55;95704.19;;;9.57;59.15
36192;BME280;22233;42.708;23.360;2024-02-04T04:56:20;95703.88;;;9.45;59.48
36192;BME280;22233;42.708;23.360;2024-02-04T04:58:45;95705.91;;;9.53;59.11
36192;BME280;22233;42.708;23.360;2024-02-04T05:01:10;95712.31;;;9.30;60.26
36192;BME280;22233;42.708;23.360;2024-02-04T05:03:36;95701.50;;;9.57;59.89
36192;BME280;22233;42.708;23.360;2024-02-04T05:06:01;95702.53;;;9.75;58.96
36192;BME280;22233;42.708;23.360;2024-02-04T05:08:26;95698.22;;;9.74;59.70
36192;BME280;22233;42.708;23.360;2024-02-04T05:10:51;95694.19;;;9.72;59.64
36192;BME280;22233;42.708;23.360;2024-02-04T05:13:17;95692.16;;;9.77;59.35
36192;BME280;22233;42.708;23.360;2024-02-04T05:15:42;95691.06;;;9.65;59.11
36192;BME280;22233;42.708;23.360;2024-02-04T05:18:07;95710.78;;;9.84;58.80
36192;BME280;22233;42.708;23.360;2024-02-04T05:20:32;95710.38;;;9.77;59.12
36192;BME280;22233;42.708;23.360;2024-02-04T05:22:58;95712.81;;;10.06;58.48
36192;BME280;22233;42.708;23.360;2024-02-04T05:25:23;95714.81;;;10.00;58.91
36192;BME280;22233;42.708;23.360;2024-02-04T05:27:49;95712.78;;;9.92;58.18
36192;BME280;22233;42.708;23.360;2024-02-04T05:30:14;95717.91;;;9.66;58.53
36192;BME280;22233;42.708;23.360;2024-02-04T05:32:40;95719.91;;;9.74;58.87
36192;BME280;22233;42.708;23.360;2024-02-04T05:35:07;95717.38;;;9.50;59.23
36192;BME280;22233;42.708;23.360;2024-02-04T05:37:32;95719.81;;;9.79;59.19
36192;BME280;22233;42.708;23.360;2024-02-04T05:39:58;95720.13;;;9.31;60.10
36192;BME280;22233;42.708;23.360;2024-02-04T05:42:23;95714.06;;;9.20;60.33
36192;BME280;22233;42.708;23.360;2024-02-04T05:44:49;95721.53;;;9.29;60.52
36192;BME280;22233;42.708;23.360;2024-02-04T05:47:14;95720.34;;;9.35;60.53
36192;BME280;22233;42.708;23.360;2024-02-04T05:49:39;95711.78;;;9.28;60.20
36192;BME280;22233;42.708;23.360;2024-02-04T05:52:05;95725.25;;;9.33;60.71
36192;BME280;22233;42.708;23.360;2024-02-04T05:54:30;95715.03;;;9.11;60.80
36192;BME280;22233;42.708;23.360;2024-02-04T05:56:55;95714.91;;;9.02;60.49
36192;BME280;22233;42.708;23.360;2024-02-04T05:59:21;95724.81;;;8.93;61.54
36192;BME280;22233;42.708;23.360;2024-02-04T06:01:46;95730.81;;;8.90;60.91
36192;BME280;22233;42.708;23.360;2024-02-04T06:04:11;95731.25;;;8.97;61.05
36192;BME280;22233;42.708;23.360;2024-02-04T06:06:37;95737.84;;;8.72;61.54
36192;BME280;22233;42.708;23.360;2024-02-04T06:09:02;95739.38;;;8.97;61.14
36192;BME280;22233;42.708;23.360;2024-02-04T06:11:27;95748.97;;;8.70;61.71
36192;BME280;22233;42.708;23.360;2024-02-04T06:13:53;95730.59;;;8.86;60.89
36192;BME280;22233;42.708;23.360;2024-02-04T06:16:18;95733.69;;;8.79;61.46
36192;BME280;22233;42.708;23.360;2024-02-04T06:18:44;95745.44;;;8.51;61.43
36192;BME280;22233;42.708;23.360;2024-02-04T06:21:09;95756.50;;;8.54;62.18
36192;BME280;22233;42.708;23.360;2024-02-04T06:23:34;95753.00;;;8.73;61.28
36192;BME280;22233;42.708;23.360;2024-02-04T06:26:00;95757.28;;;8.55;62.01
36192;BME280;22233;42.708;23.360;2024-02-04T06:28:25;95771.56;;;8.60;61.67
36192;BME280;22233;42.708;23.360;2024-02-04T06:30:50;95778.81;;;8.65;61.44
36192;BME280;22233;42.708;23.360;2024-02-04T06:33:16;95774.09;;;8.76;61.55
36192;BME280;22233;42.708;23.360;2024-02-04T06:35:41;95770.88;;;9.12;60.09
36192;BME280;22233;42.708;23.360;2024-02-04T06:38:06;95779.19;;;9.15;60.63
36192;BME280;22233;42.708;23.360;2024-02-04T06:40:32;95782.06;;;9.05;60.40
36192;BME280;22233;42.708;23.360;2024-02-04T06:42:57;95790.53;;;8.60;61.87
36192;BME280;22233;42.708;23.360;2024-02-04T06:45:22;95790.34;;;8.95;61.28
36192;BME280;22233;42.708;23.360;2024-02-04T06:47:47;95786.38;;;8.87;60.95
36192;BME280;22233;42.708;23.360;2024-02-04T06:50:13;95781.78;;;8.88;61.12
36192;BME280;22233;42.708;23.360;2024-02-04T06:52:41;95782.72;;;8.78;61.81
36192;BME280;22233;42.708;23.360;2024-02-04T06:55:07;95764.94;;;9.10;60.52
36192;BME280;22233;42.708;23.360;2024-02-04T06:57:33;95767.72;;;8.86;60.86
36192;BME280;22233;42.708;23.360;2024-02-04T06:59:58;95779.28;;;9.10;60.97
36192;BME280;22233;42.708;23.360;2024-02-04T07:02:23;95770.41;;;9.24;60.15
36192;BME280;22233;42.708;23.360;2024-02-04T07:04:49;95769.31;;;9.25;60.79
36192;BME280;22233;42.708;23.360;2024-02-04T07:07:14;95768.03;;;9.36;60.01
36192;BME280;22233;42.708;23.360;2024-02-04T07:09:39;95768.78;;;9.23;60.74
36192;BME280;22233;42.708;23.360;2024-02-04T07:12:05;95765.13;;;9.32;59.97
36192;BME280;22233;42.708;23.360;2024-02-04T07:14:30;95771.38;;;9.47;59.81
36192;BME280;22233;42.708;23.360;2024-02-04T07:16:55;95768.63;;;9.79;59.24
36192;BME280;22233;42.708;23.360;2024-02-04T07:19:21;95766.63;;;9.71;59.48
36192;BME280;22233;42.708;23.360;2024-02-04T07:21:46;95778.25;;;9.58;59.36
36192;BME280;22233;42.708;23.360;2024-02-04T07:24:11;95760.56;;;9.60;59.59
36192;BME280;22233;42.708;23.360;2024-02-04T07:26:37;95769.28;;;9.57;59.59
36192;BME280;22233;42.708;23.360;2024-02-04T07:29:02;95765.91;;;9.66;60.18
36192;BME280;22233;42.708;23.360;2024-02-04T07:31:27;95773.09;;;9.89;58.80
36192;BME280;22233;42.708;23.360;2024-02-04T07:33:52;95770.69;;;10.02;58.44
36192;BME280;22233;42.708;23.360;2024-02-04T07:36:17;95770.59;;;10.07;58.40
36192;BME280;22233;42.708;23.360;2024-02-04T07:38:43;95768.97;;;10.06;62.04
36192;BME280;22233;42.708;23.360;2024-02-04T07:41:08;95778.38;;;10.55;57.25
36192;BME280;22233;42.708;23.360;2024-02-04T07:43:33;95762.34;;;10.12;59.18
36192;BME280;22233;42.708;23.360;2024-02-04T07:45:59;95767.88;;;10.20;58.38
36192;BME280;22233;42.708;23.360;2024-02-04T07:48:24;95798.00;;;9.91;59.98
36192;BME280;22233;42.708;23.360;2024-02-04T07:50:49;95792.22;;;9.98;59.20
36192;BME280;22233;42.708;23.360;2024-02-04T07:53:15;95779.81;;;9.92;58.53
36192;BME280;22233;42.708;23.360;2024-02-04T07:55:40;95799.13;;;9.90;59.66
36192;BME280;22233;42.708;23.360;2024-02-04T07:58:05;95778.81;;;9.88;59.56
36192;BME280;22233;42.708;23.360;2024-02-04T08:00:31;95787.78;;;9.88;59.55
36192;BME280;22233;42.708;23.360;2024-02-04T08:02:56;95787.78;;;10.02;59.13
36192;BME280;22233;42.708;23.360;2024-02-04T08:05:21;95793.03;;;10.12;58.59
36192;BME280;22233;42.708;23.360;2024-02-04T08:07:46;95781.59;;;10.43;58.29
36192;BME280;22233;42.708;23.360;2024-02-04T08:10:12;95792.94;;;10.59;56.52
36192;BME280;22233;42.708;23.360;2024-02-04T08:12:37;95777.25;;;10.42;57.25
36192;BME280;22233;42.708;23.360;2024-02-04T08:15:02;95783.59;;;10.37;57.96
36192;BME280;22233;42.708;23.360;2024-02-04T08:17:28;95792.81;;;10.64;56.11
36192;BME280;22233;42.708;23.360;2024-02-04T08:19:55;95805.03;;;10.53;57.43
36192;BME280;22233;42.708;23.360;2024-02-04T08:22:21;95782.16;;;10.54;56.88
36192;BME280;22233;42.708;23.360;2024-02-04T08:24:46;95787.38;;;10.64;56.86
36192;BME280;22233;42.708;23.360;2024-02-04T08:27:12;95779.94;;;10.70;56.63
36192;BME280;22233;42.708;23.360;2024-02-04T08:29:37;95784.38;;;10.66;57.04
36192;BME280;22233;42.708;23.360;2024-02-04T08:32:02;95769.78;;;10.62;58.03
36192;BME280;22233;42.708;23.360;2024-02-04T08:34:28;95783.38;;;10.34;58.59
36192;BME280;22233;42.708;23.360;2024-02-04T08:36:53;95773.03;;;10.50;58.24
36192;BME280;22233;42.708;23.360;2024-02-04T08:39:18;95773.50;;;10.79;58.00
36192;BME280;22233;42.708;23.360;2024-02-04T08:41:44;95783.94;;;10.86;57.07
36192;BME280;22233;42.708;23.360;2024-02-04T08:44:09;95783.09;;;10.49;58.08
36192;BME280;22233;42.708;23.360;2024-02-04T08:46:34;95771.50;;;10.71;58.10
36192;BME280;22233;42.708;23.360;2024-02-04T08:48:59;95780.69;;;10.98;57.34
36192;BME280;22233;42.708;23.360;2024-02-04T08:51:25;95768.34;;;10.78;57.81
36192;BME280;22233;42.708;23.360;2024-02-04T08:53:50;95798.53;;;10.76;58.00
36192;BME280;22233;42.708;23.360;2024-02-04T08:56:15;95785.47;;;10.78;57.41
36192;BME280;22233;42.708;23.360;2024-02-04T08:58:40;95751.16;;;10.83;58.00
36192;BME280;22233;42.708;23.360;2024-02-04T09:01:06;95764.63;;;10.74;58.89
36192;BME280;22233;42.708;23.360;2024-02-04T09:03:31;95767.38;;;10.60;58.88
36192;BME280;22233;42.708;23.360;2024-02-04T09:05:57;95759.69;;;10.76;58.98
36192;BME280;22233;42.708;23.360;2024-02-04T09:08:23;95764.59;;;10.88;58.72
36192;BME280;22233;42.708;23.360;2024-02-04T09:10:48;95764.53;;;10.79;58.54
36192;BME280;22233;42.708;23.360;2024-02-04T09:13:13;95776.91;;;10.85;58.11
36192;BME280;22233;42.708;23.360;2024-02-04T09:15:39;95779.13;;;10.83;57.89
36192;BME280;22233;42.708;23.360;2024-02-04T09:18:04;95761.28;;;10.41;58.63
36192;BME280;22233;42.708;23.360;2024-02-04T09:20:29;95824.75;;;10.58;58.17
36192;BME280;22233;42.708;23.360;2024-02-04T09:22:55;95776.16;;;10.43;59.25
36192;BME280;22233;42.708;23.360;2024-02-04T09:25:20;95786.72;;;10.58;59.18
36192;BME280;22233;42.708;23.360;2024-02-04T09:27:45;95802.31;;;10.53;58.52
36192;BME280;22233;42.708;23.360;2024-02-04T09:30:10;95802.41;;;10.62;59.10
36192;BME280;22233;42.708;23.360;2024-02-04T09:32:36;95808.41;;;10.72;58.01
36192;BME280;22233;42.708;23.360;2024-02-04T09:35:02;95806.81;;;10.71;58.31
36192;BME280;22233;42.708;23.360;2024-02-04T09:37:27;95797.84;;;10.85;58.85
36192;BME280;22233;42.708;23.360;2024-02-04T09:39:52;95780.97;;;10.96;57.39
36192;BME280;22233;42.708;23.360;2024-02-04T09:42:21;95781.78;;;11.11;56.91
36192;BME280;22233;42.708;23.360;2024-02-04T09:44:49;95789.66;;;11.35;57.61
36192;BME280;22233;42.708;23.360;2024-02-04T09:47:14;95795.88;;;11.35;57.71
36192;BME280;22233;42.708;23.360;2024-02-04T09:49:40;95788.25;;;11.24;56.73
36192;BME280;22233;42.708;23.360;2024-02-04T09:52:08;95780.41;;;11.45;57.48
36192;BME280;22233;42.708;23.360;2024-02-04T09:54:34;95800.88;;;11.87;56.47
36192;BME280;22233;42.708;23.360;2024-02-04T09:57:04;95788.22;;;11.60;55.88
36192;BME280;22233;42.708;23.360;2024-02-04T09:59:29;95773.09;;;11.76;56.27
36192;BME280;22233;42.708;23.360;2024-02-04T10:01:56;95775.69;;;11.82;56.37
36192;BME280;22233;42.708;23.360;2024-02-04T10:04:22;95784.31;;;11.97;55.41
36192;BME280;22233;42.708;23.360;2024-02-04T10:06:47;95790.06;;;11.96;55.86
36192;BME280;22233;42.708;23.360;2024-02-04T10:09:12;95769.66;;;11.62;57.36
36192;BME280;22233;42.708;23.360;2024-02-04T10:11:38;95817.59;;;11.72;57.10
36192;BME280;22233;42.708;23.360;2024-02-04T10:14:03;95796.22;;;11.88;56.45
36192;BME280;22233;42.708;23.360;2024-02-04T10:16:28;95809.84;;;12.10;55.70
36192;BME280;22233;42.708;23.360;2024-02-04T10:18:54;95790.50;;;12.29;55.51
36192;BME280;22233;42.708;23.360;2024-02-04T10:21:21;95786.00;;;12.16;56.32
36192;BME280;22233;42.708;23.360;2024-02-04T10:23:48;95799.13;;;12.14;56.58
36192;BME280;22233;42.708;23.360;2024-02-04T10:26:14;95789.81;;;12.15;55.85
36192;BME280;22233;42.708;23.360;2024-02-04T10:28:40;95786.81;;;12.25;56.43
36192;BME280;22233;42.708;23.360;2024-02-04T10:31:08;95779.13;;;12.27;56.04
36192;BME280;22233;42.708;23.360;2024-02-04T10:33:33;95787.78;;;12.21;55.78
36192;BME280;22233;42.708;23.360;2024-02-04T10:35:59;95780.59;;;12.33;56.10
36192;BME280;22233;42.708;23.360;2024-02-04T10:38:24;95781.94;;;12.05;56.83
36192;BME280;22233;42.708;23.360;2024-02-04T10:40:53;95780.94;;;12.01;56.10
36192;BME280;22233;42.708;23.360;2024-02-04T10:43:19;95777.72;;;11.98;56.22
36192;BME280;22233;42.708;23.360;2024-02-04T10:45:45;95813.00;;;11.58;57.35
36192;BME280;22233;42.708;23.360;2024-02-04T10:48:11;95796.25;;;11.65;57.45
36192;BME280;22233;42.708;23.360;2024-02-04T10:50:39;95791.34;;;11.76;57.06
36192;BME280;22233;42.708;23.360;2024-02-04T10:53:05;95792.22;;;11.63;57.97
36192;BME280;22233;42.708;23.360;2024-02-04T10:55:32;95792.22;;;11.63;57.65
36192;BME280;22233;42.708;23.360;2024-02-04T10:57:58;95779.28;;;11.68;58.24
36192;BME280;22233;42.708;23.360;2024-02-04T11:00:24;95804.91;;;11.67;57.38
36192;BME280;22233;42.708;23.360;2024-02-04T11:02:51;95798.84;;;11.70;57.46
36192;BME280;22233;42.708;23.360;2024-02-04T11:05:19;95778.44;;;11.82;56.34
36192;BME280;22233;42.708;23.360;2024-02-04T11:07:44;95786.53;;;11.73;57.74
36192;BME280;22233;42.708;23.360;2024-02-04T11:10:10;95782.28;;;11.58;57.23
36192;BME280;22233;42.708;23.360;2024-02-04T11:12:35;95800.47;;;11.71;57.49
36192;BME280;22233;42.708;23.360;2024-02-04T11:15:03;95783.06;;;11.58;57.81
36192;BME280;22233;42.708;23.360;2024-02-04T11:27:52;95752.13;;;11.77;56.63
36192;BME280;22233;42.708;23.360;2024-02-04T11:30:18;95766.97;;;11.71;57.06
36192;BME280;22233;42.708;23.360;2024-02-04T11:32:44;95756.06;;;11.62;57.56
36192;BME280;22233;42.708;23.360;2024-02-04T11:35:09;95788.50;;;11.81;57.23
36192;BME280;22233;42.708;23.360;2024-02-04T11:37:36;95762.97;;;11.91;57.17
36192;BME280;22233;42.708;23.360;2024-02-04T11:40:03;95758.72;;;12.07;56.42
36192;BME280;22233;42.708;23.360;2024-02-04T11:42:32;95731.84;;;12.23;55.47
36192;BME280;22233;42.708;23.360;2024-02-04T11:45:08;95744.88;;;12.35;55.12
36192;BME280;22233;42.708;23.360;2024-02-04T11:47:33;95733.72;;;12.54;54.80
36192;BME280;22233;42.708;23.360;2024-02-04T11:49:58;95714.66;;;12.71;54.33
36192;BME280;22233;42.708;23.360;2024-02-04T11:52:27;95741.16;;;12.88;53.78
36192;BME280;22233;42.708;23.360;2024-02-04T11:54:52;95725.25;;;12.99;52.95
36192;BME280;22233;42.708;23.360;2024-02-04T11:57:18;95718.84;;;12.86;53.91
36192;BME280;22233;42.708;23.360;2024-02-04T11:59:43;95701.53;;;13.08;52.85
36192;BME280;22233;42.708;23.360;2024-02-04T12:02:09;95675.38;;;13.07;53.19
36192;BME280;22233;42.708;23.360;2024-02-04T12:04:36;95682.56;;;13.12;52.58
36192;BME280;22233;42.708;23.360;2024-02-04T12:07:03;95693.16;;;13.39;52.10
36192;BME280;22233;42.708;23.360;2024-02-04T12:09:28;95697.34;;;13.54;51.84
36192;BME280;22233;42.708;23.360;2024-02-04T12:11:54;95705.81;;;13.62;51.93
36192;BME280;22233;42.708;23.360;2024-02-04T12:14:19;95717.25;;;14.02;50.74
36192;BME280;22233;42.708;23.360;2024-02-04T12:16:46;95723.25;;;13.78;50.63
36192;BME280;22233;42.708;23.360;2024-02-04T12:19:11;95706.84;;;13.95;50.13
36192;BME280;22233;42.708;23.360;2024-02-04T12:21:36;95708.88;;;13.51;51.13
36192;BME280;22233;42.708;23.360;2024-02-04T12:24:02;95706.97;;;13.43;51.35
36192;BME280;22233;42.708;23.360;2024-02-04T12:26:27;95681.94;;;13.24;51.47
36192;BME280;22233;42.708;23.360;2024-02-04T12:28:53;95690.94;;;12.81;53.28
36192;BME280;22233;42.708;23.360;2024-02-04T12:31:24;95693.19;;;13.13;52.20
36192;BME280;22233;42.708;23.360;2024-02-04T12:33:56;95686.44;;;13.19;51.89
36192;BME280;22233;42.708;23.360;2024-02-04T12:36:23;95683.22;;;13.44;51.40
36192;BME280;22233;42.708;23.360;2024-02-04T12:38:55;95688.19;;;13.50;50.93
36192;BME280;22233;42.708;23.360;2024-02-04T12:41:21;95686.03;;;13.73;50.31
36192;BME280;22233;42.708;23.360;2024-02-04T12:43:54;95668.59;;;13.95;49.65
36192;BME280;22233;42.708;23.360;2024-02-04T12:46:20;95686.13;;;13.94;50.08
36192;BME280;22233;42.708;23.360;2024-02-04T12:48:50;95675.72;;;14.17;49.58
36192;BME280;22233;42.708;23.360;2024-02-04T12:51:23;95673.16;;;14.12;49.30
36192;BME280;22233;42.708;23.360;2024-02-04T12:53:48;95671.38;;;13.87;49.92
36192;BME280;22233;42.708;23.360;2024-02-04T12:56:13;95677.56;;;13.57;50.97
36192;BME280;22233;42.708;23.360;2024-02-04T12:58:42;95676.09;;;13.69;50.49
36192;BME280;22233;42.708;23.360;2024-02-04T13:01:07;95671.84;;;13.33;51.13
36192;BME280;22233;42.708;23.360;2024-02-04T13:03:32;95682.81;;;13.71;51.07